Date,TemperatureHighF,TemperatureAvgF,TemperatureLowF,DewpointHighF,DewpointAvgF,DewpointLowF,HumidityHigh,HumidityAvg,HumidityLow,PressureMaxIn,PressureMinIn,WindSpeedMaxMPH,WindSpeedAvgMPH,GustSpeedMaxMPH,PrecipitationSumIn
2014-1-1,52.0,33.4,24.0,29.0,22.7,16.0,94,71,24,0.00,40.00,5,2,10,0.00
2014-1-2,47.0,36.6,18.0,45.0,32.9,12.0,97,86,71,0.00,40.00,14,5,31,0.28
2014-1-3,34.0,20.3,11.0,14.0,8.7,4.0,85,62,35,0.00,40.00,12,5,31,0.01
2014-1-4,46.0,29.3,14.0,35.0,18.5,-99.9,91,71,22,0.00,40.00,7,3,16,0.01
2014-1-5,55.0,48.4,42.0,48.0,41.3,35.0,94,77,59,0.00,40.00,7,4,26,0.35
2014-1-6,51.0,17.7,2.0,48.0,10.5,-8.0,90,73,50,0.00,40.00,13,7,29,0.66
2014-1-7,25.0,9.1,-2.0,7.0,-3.4,-12.0,84,58,32,0.00,40.00,8,4,27,0.01
2014-1-8,47.0,23.2,8.0,23.0,12.5,4.0,88,68,32,0.00,40.00,4,2,6,0.00
2014-1-9,56.0,31.6,24.0,37.0,26.6,17.0,94,84,21,0.00,40.00,3,2,6,0.01
2014-1-10,55.0,46.9,39.0,52.0,45.2,37.0,98,94,84,0.00,40.00,3,2,9,0.60
2014-1-11,60.0,53.6,44.0,55.0,43.7,-99.9,98,75,37,0.00,40.00,9,5,21,2.38
2014-1-12,58.0,43.3,31.0,38.0,30.5,25.0,91,64,30,0.00,40.00,5,3,15,0.02
2014-1-13,53.0,39.8,29.0,41.0,32.0,27.0,97,78,36,0.00,40.00,6,3,13,0.06
2014-1-14,55.0,44.1,31.0,42.0,35.3,26.0,97,76,34,0.00,40.00,7,3,20,0.25
2014-1-15,42.0,33.1,25.0,32.0,23.5,15.0,96,70,34,0.00,40.00,10,4,24,0.01
2014-1-16,45.0,30.3,18.0,19.0,12.4,7.0,86,52,23,0.00,40.00,6,3,15,0.00
2014-1-17,46.0,35.3,24.0,25.0,16.9,9.0,75,49,31,0.00,40.00,10,5,30,0.00
2014-1-18,40.0,28.4,19.0,11.0,5.2,-99.9,63,41,21,0.00,40.00,10,5,20,0.00
2014-1-19,48.0,38.0,27.0,25.0,19.3,7.0,82,48,29,0.00,40.00,6,3,15,0.00
2014-1-20,64.0,36.0,23.0,27.0,21.4,18.0,88,63,18,0.00,40.00,10,4,22,0.00
2014-1-21,42.0,30.0,15.0,29.0,22.8,10.0,92,75,53,0.00,40.00,8,6,26,0.01
2014-1-22,32.0,17.5,7.0,10.0,1.4,-8.0,81,53,22,0.00,40.00,9,5,20,0.12
2014-1-23,30.0,20.7,10.0,13.0,3.6,-6.0,60,47,35,0.00,40.00,9,6,21,0.12
2014-1-24,33.0,14.3,1.0,4.0,-4.9,-11.0,72,47,15,0.00,40.00,8,4,16,0.00
2014-1-25,36.0,22.4,9.0,22.0,7.2,-99.9,82,58,25,0.00,40.00,9,4,22,0.03
2014-1-26,54.0,36.0,20.0,26.0,21.0,16.0,85,58,31,0.00,40.00,8,4,18,0.03
2014-1-27,44.0,36.3,21.0,36.0,24.1,-2.0,95,64,33,0.00,40.00,10,5,19,0.04
2014-1-28,21.0,18.2,14.0,15.0,6.8,-2.0,79,62,35,0.00,40.00,6,4,15,0.04
2014-1-29,31.0,16.4,6.0,8.0,0.8,-4.0,80,54,26,0.00,40.00,6,3,15,0.13
2014-1-30,43.0,16.7,1.0,13.0,3.3,-6.0,82,62,12,0.00,40.00,6,2,11,0.08
2014-1-31,56.0,25.1,15.0,20.0,14.5,6.0,86,67,13,0.00,40.00,4,3,9,0.00
2014-2-1,69.0,39.8,22.0,38.0,23.9,-99.9,88,60,28,0.00,40.00,9,3,18,0.00
2014-2-2,60.0,44.6,29.0,53.0,40.4,27.0,97,86,57,0.00,40.00,5,3,12,0.67
2014-2-3,60.0,45.7,36.0,58.0,41.4,34.0,98,86,64,0.00,40.00,7,4,19,3.47
2014-2-4,59.0,43.9,34.0,50.0,40.6,33.0,97,89,65,0.00,40.00,6,2,14,0.02
2014-2-5,56.0,44.5,25.0,52.0,38.6,21.0,95,80,61,0.00,40.00,11,6,27,0.37
2014-2-6,35.0,27.4,23.0,25.0,20.7,17.0,91,76,60,0.00,40.00,7,4,19,0.02
2014-2-7,46.0,32.7,26.0,29.0,25.4,23.0,90,76,51,0.00,40.00,6,2,11,0.02
2014-2-8,48.0,37.4,30.0,34.0,29.7,26.0,95,75,53,0.00,40.00,4,2,9,0.01
2014-2-9,50.0,38.5,30.0,37.0,32.7,29.0,96,81,60,0.00,40.00,6,2,11,0.00
2014-2-10,36.0,33.6,32.0,34.0,31.3,28.0,95,91,86,0.00,40.00,5,2,12,0.14
2014-2-11,36.0,31.6,29.0,30.0,28.1,27.0,95,87,73,0.00,40.00,4,2,7,0.07
2014-2-12,34.0,31.1,29.0,31.0,29.4,28.0,96,93,86,0.00,40.00,4,1,7,0.25
2014-2-13,40.0,31.2,25.0,31.0,27.8,24.0,96,88,70,0.00,40.00,8,4,22,0.48
2014-2-14,55.0,38.2,20.0,35.0,26.3,18.0,94,66,32,0.00,40.00,8,3,19,0.10
2014-2-15,37.0,32.0,26.0,36.0,21.9,-99.9,96,71,46,0.00,40.00,10,4,24,0.25
2014-2-16,58.0,37.9,29.0,30.0,25.2,20.0,88,65,28,0.00,40.00,8,3,20,0.01
2014-2-17,61.0,41.4,27.0,43.0,30.0,26.0,97,70,31,0.00,40.00,7,3,19,0.14
2014-2-18,65.0,47.7,31.0,43.0,30.0,15.0,97,61,15,0.00,40.00,8,3,14,0.14
2014-2-19,69.0,56.1,45.0,59.0,48.6,34.0,98,80,41,0.00,40.00,7,3,16,0.73
2014-2-20,72.0,59.7,48.0,54.0,51.0,46.0,96,75,51,0.00,40.00,8,4,20,0.03
2014-2-21,65.0,51.5,32.0,53.0,34.5,14.0,93,57,22,0.00,40.00,9,5,34,0.85
2014-2-22,68.0,44.4,30.0,33.0,20.3,-99.9,92,53,10,0.00,40.00,8,2,12,0.01
2014-2-23,71.0,49.5,33.0,36.0,28.0,24.0,81,51,18,0.00,40.00,9,4,17,0.00
2014-2-24,54.0,44.5,32.0,36.0,25.9,14.0,88,52,24,0.00,40.00,10,4,23,0.00
2014-2-25,56.0,40.9,29.0,30.0,23.8,19.0,81,54,26,0.00,40.00,7,3,17,0.00
2014-2-26,42.0,33.1,26.0,26.0,17.6,8.0,80,54,38,0.00,40.00,10,6,20,0.00
2014-2-27,46.0,30.8,18.0,13.0,4.9,-2.0,77,37,16,0.00,40.00,7,4,22,0.00
2014-2-28,55.0,34.8,16.0,20.0,11.5,6.0,85,46,14,0.00,40.00,6,3,14,0.00
2014-3-1,56.0,45.7,37.0,34.0,26.1,-99.9,74,49,34,0.00,40.00,6,4,16,0.00
2014-3-2,67.0,56.6,47.0,47.0,41.9,34.0,73,59,47,0.00,40.00,8,5,20,0.00
2014-3-3,60.0,45.5,28.0,50.0,39.4,25.0,97,81,55,0.00,40.00,6,4,19,0.53
2014-3-4,43.0,34.8,28.0,35.0,31.6,26.0,95,88,73,0.00,40.00,4,2,7,0.01
2014-3-5,63.0,44.4,35.0,39.0,34.4,27.0,94,72,35,0.00,40.00,5,2,12,0.01
2014-3-6,56.0,39.6,30.0,37.0,26.7,12.0,96,71,17,0.00,40.00,7,2,15,0.00
2014-3-7,65.0,48.1,39.0,40.0,37.0,31.0,95,69,36,0.00,40.00,6,3,14,0.00
2014-3-8,69.0,47.5,31.0,41.0,29.9,-99.9,96,62,20,0.00,40.00,8,3,17,0.00
2014-3-9,67.0,50.9,38.0,42.0,33.7,18.0,86,57,25,0.00,40.00,6,4,17,0.00
2014-3-10,72.0,50.5,31.0,40.0,33.3,26.0,86,57,28,0.00,40.00,6,3,11,0.00
2014-3-11,78.0,53.6,33.0,44.0,37.1,32.0,96,62,22,0.00,40.00,7,3,15,0.00
2014-3-12,63.0,51.8,32.0,58.0,44.2,22.0,96,76,59,0.00,40.00,13,6,32,0.11
2014-3-13,45.0,34.2,28.0,23.0,16.4,8.0,74,51,24,0.00,40.00,12,8,29,0.01
2014-3-14,64.0,42.4,22.0,24.0,18.9,15.0,87,48,16,0.00,40.00,11,4,25,0.00
2014-3-15,69.0,56.5,45.0,39.0,31.5,20.0,60,40,26,0.00,40.00,8,4,17,0.00
2014-3-16,52.0,46.5,42.0,51.0,41.7,-99.9,98,88,59,0.00,40.00,4,2,7,0.83
2014-3-17,55.0,46.9,43.0,50.0,41.8,-99.9,99,88,73,0.00,40.00,5,3,12,0.45
2014-3-18,63.0,49.0,42.0,46.0,42.5,41.0,97,81,46,0.00,40.00,9,2,13,0.01
2014-3-19,60.0,47.6,36.0,45.0,40.1,35.0,98,78,47,0.00,40.00,10,5,19,0.00
2014-3-20,60.0,49.1,38.0,42.0,25.8,-99.9,76,48,16,0.00,40.00,8,4,19,0.00
2014-3-21,69.0,45.4,26.0,33.0,20.3,-99.9,91,50,11,0.00,40.00,7,3,16,0.00
2014-3-22,71.0,53.7,37.0,40.0,34.3,21.0,80,51,28,0.00,40.00,5,3,15,0.00
2014-3-23,53.0,44.3,41.0,45.0,35.6,-99.9,96,77,44,0.00,40.00,10,4,25,0.69
2014-3-24,58.0,51.0,41.0,23.0,20.2,16.0,43,30,22,0.00,40.00,7,4,14,0.00
2014-3-25,41.0,35.3,29.0,35.0,24.8,7.0,96,67,37,0.00,40.00,11,6,28,0.13
2014-3-26,49.0,33.6,23.0,17.0,8.8,5.0,60,38,17,0.00,40.00,10,6,25,0.01
2014-3-27,63.0,43.8,25.0,23.0,16.8,11.0,77,42,13,0.00,40.00,7,4,20,0.00
2014-3-28,59.0,54.5,50.0,52.0,46.6,23.0,93,76,32,0.00,40.00,6,3,14,0.05
2014-3-29,53.0,48.0,38.0,50.0,45.4,35.0,98,91,80,0.00,40.00,14,4,30,0.47
2014-3-30,57.0,42.4,34.0,34.0,28.6,-99.9,95,64,35,0.00,40.00,11,8,29,0.41
2014-3-31,77.0,53.4,28.0,37.0,28.8,22.0,95,51,13,0.00,40.00,6,3,11,0.01
2014-4-1,83.0,64.0,43.0,41.0,32.0,-99.9,78,38,14,0.00,40.00,7,4,14,0.00
2014-4-2,83.0,63.2,38.0,41.0,34.4,22.0,89,42,14,0.00,40.00,9,4,18,0.00
2014-4-3,82.0,67.3,56.0,55.0,47.1,33.0,75,51,30,0.00,40.00,9,5,22,0.00
2014-4-4,67.0,61.5,55.0,59.0,52.4,47.0,92,73,59,0.00,40.00,7,4,17,0.25
2014-4-5,64.0,51.2,42.0,50.0,35.7,30.0,82,58,32,0.00,40.00,8,5,17,0.21
2014-4-6,67.0,50.7,37.0,49.0,35.0,-99.9,96,64,25,0.00,40.00,8,3,15,0.08
2014-4-7,64.0,53.6,47.0,56.0,49.8,45.0,97,88,68,0.00,40.00,7,3,16,2.63
2014-4-8,58.0,49.1,43.0,50.0,37.5,32.0,80,65,45,0.00,40.00,7,4,19,0.02
2014-4-9,65.0,51.4,43.0,44.0,36.6,27.0,86,61,29,0.00,40.00,9,5,22,0.02
2014-4-10,75.0,56.2,32.0,39.0,31.9,28.0,95,50,18,0.00,40.00,9,4,20,0.01
2014-4-11,78.0,59.9,42.0,45.0,35.6,28.0,81,45,18,0.00,40.00,8,4,17,0.00
2014-4-12,83.0,65.2,48.0,50.0,44.2,39.0,89,51,24,0.00,40.00,9,4,17,0.00
2014-4-13,82.0,67.9,56.0,53.0,46.6,-99.9,77,51,31,0.00,40.00,8,4,21,0.00
2014-4-14,68.0,64.2,60.0,59.0,52.3,49.0,88,66,51,0.00,40.00,8,4,21,0.17
2014-4-15,61.0,43.9,35.0,57.0,38.7,23.0,97,82,60,0.00,40.00,11,6,32,0.45
2014-4-16,68.0,41.2,26.0,29.0,23.5,19.0,86,55,18,0.00,40.00,10,4,23,0.03
2014-4-17,72.0,48.8,30.0,33.0,27.4,20.0,91,51,15,0.00,40.00,8,3,18,0.00
2014-4-18,59.0,49.7,44.0,43.0,37.3,33.0,75,63,42,0.00,40.00,4,2,9,0.00
2014-4-19,62.0,53.0,48.0,53.0,47.2,43.0,97,82,50,0.00,40.00,5,2,11,0.21
2014-4-20,79.0,57.8,42.0,52.0,40.9,-99.9,98,65,26,0.00,40.00,7,3,13,0.13
2014-4-21,80.0,60.2,40.0,47.0,41.7,39.0,96,58,25,0.00,40.00,8,4,16,0.00
2014-4-22,66.0,55.9,49.0,60.0,51.9,43.0,98,87,58,0.00,40.00,4,2,7,0.32
2014-4-23,71.0,58.0,44.0,53.0,37.2,24.0,98,55,20,0.00,40.00,8,4,16,0.01
2014-4-24,79.0,57.1,35.0,42.0,33.6,27.0,95,52,15,0.00,40.00,10,4,18,0.01
2014-4-25,71.0,62.0,55.0,58.0,49.8,38.0,98,67,44,0.00,40.00,9,4,22,0.19
2014-4-26,84.0,58.5,42.0,49.0,42.2,32.0,97,67,16,0.00,40.00,7,3,15,0.02
2014-4-28,73.0,70.5,65.0,61.0,56.9,56.0,88,64,55,0.00,40.00,4,2,12,0.01
2014-4-29,79.0,69.0,60.0,64.0,57.8,55.0,94,70,44,0.00,40.00,8,5,32,1.00
2014-4-30,73.0,65.6,58.0,60.0,56.6,52.0,93,74,48,0.00,40.00,8,5,22,0.07
2014-5-1,68.0,57.4,48.0,56.0,45.1,36.0,97,68,34,0.00,40.00,7,3,15,0.05
2014-5-2,70.0,54.0,40.0,43.0,38.4,35.0,96,62,29,0.00,40.00,7,3,15,0.00
2014-5-3,75.0,58.3,39.0,43.0,39.8,37.0,95,55,29,0.00,40.00,7,3,19,0.00
2014-5-4,85.0,61.8,42.0,51.0,41.7,-99.9,96,58,23,0.00,40.00,9,3,19,0.00
2014-5-5,89.0,67.8,48.0,60.0,46.5,38.0,96,57,17,0.00,40.00,8,4,20,0.01
2014-5-6,89.0,69.0,50.0,58.0,49.4,39.0,97,59,18,0.00,40.00,5,3,10,0.01
2014-5-7,62.0,62.0,62.0,53.0,53.0,53.0,73,73,73,0.00,40.00,3,3,5,0.00
2014-5-13,79.0,69.5,65.0,63.0,62.2,62.0,94,80,56,0.00,40.00,2,1,8,0.00
2014-5-14,84.0,69.0,58.0,65.0,58.6,51.0,98,74,33,0.00,40.00,6,3,17,0.52
2014-5-15,63.0,57.2,49.0,62.0,54.5,42.0,99,91,71,0.00,40.00,7,3,17,1.20
2014-5-16,59.0,49.1,39.0,51.0,41.4,33.0,97,77,42,0.00,40.00,8,3,24,0.11
2014-5-17,58.0,47.6,36.0,53.0,42.5,35.0,97,84,60,0.00,40.00,6,2,12,0.01
2014-5-18,62.0,52.7,48.0,54.0,47.6,-99.9,98,87,71,0.00,40.00,3,1,6,0.13
2014-5-19,78.0,57.9,49.0,54.0,43.5,-99.9,98,70,40,0.00,40.00,5,2,12,0.04
2014-5-20,83.0,63.5,48.0,59.0,52.0,-99.9,100,73,41,0.00,40.00,7,3,13,0.04
2014-5-21,85.0,69.5,52.0,63.0,56.7,52.0,100,69,35,0.00,40.00,7,3,15,0.00
2014-5-22,86.0,68.1,57.0,66.0,58.9,-99.9,99,78,50,0.00,40.00,6,3,21,0.00
2014-5-23,85.0,69.4,57.0,72.0,61.8,57.0,100,80,53,0.00,40.00,6,3,16,0.00
2014-5-24,83.0,68.2,57.0,63.0,56.9,48.0,100,72,38,0.00,40.00,5,2,15,0.00
2014-5-25,76.0,62.4,51.0,67.0,55.5,-99.9,98,83,53,0.00,40.00,3,1,7,0.00
2014-5-26,86.0,68.8,54.0,67.0,61.5,54.0,99,80,52,0.00,40.00,4,2,10,0.00
2014-5-27,86.0,69.2,60.0,73.0,63.7,60.0,99,85,50,0.00,40.00,3,1,16,0.00
2014-5-28,89.0,70.2,58.0,68.0,61.1,57.0,99,78,37,0.00,40.00,5,2,12,0.00
2014-5-29,85.0,67.9,59.0,68.0,63.1,59.0,99,87,54,0.00,40.00,6,2,11,0.00
2014-5-30,87.0,68.5,62.0,70.0,64.8,61.0,99,90,53,0.00,40.00,6,1,15,0.00
2014-5-31,87.0,69.5,61.0,69.0,64.8,61.0,99,87,54,0.00,40.00,5,2,11,0.00
2014-6-1,81.0,69.3,64.0,67.0,61.0,-99.9,97,79,58,0.00,40.00,4,2,10,0.00
2014-6-2,84.0,76.8,65.0,66.0,60.2,56.0,72,57,48,0.00,40.00,4,3,12,0.00
2014-6-3,85.0,68.9,55.0,69.0,61.2,54.0,98,78,57,0.00,40.00,4,2,10,0.00
2014-6-4,87.0,72.3,60.0,75.0,64.6,59.0,98,80,53,0.00,40.00,5,2,13,0.00
2014-6-5,78.0,70.8,65.0,69.0,66.0,63.0,98,86,68,0.00,40.00,4,2,13,0.00
2014-6-6,85.0,73.8,65.0,70.0,65.7,62.0,98,79,54,0.00,40.00,6,2,12,0.00
2014-6-7,88.0,73.4,61.0,68.0,64.3,60.0,98,77,48,0.00,40.00,4,2,10,0.00
2014-6-8,86.0,71.8,63.0,70.0,62.0,-99.9,97,76,50,0.00,40.00,6,3,16,0.00
2014-6-9,86.0,70.1,60.0,67.0,62.5,59.0,97,79,49,0.00,40.00,6,2,14,0.00
2014-6-10,87.0,70.4,62.0,72.0,64.8,61.0,97,84,56,0.00,40.00,5,2,18,0.00
2014-6-11,79.0,67.6,60.0,67.0,62.9,59.0,98,87,59,0.00,40.00,6,2,14,0.00
2014-6-12,82.0,67.9,60.0,69.0,63.0,59.0,98,86,62,0.00,40.00,5,2,12,0.00
2014-6-13,81.0,66.4,62.0,69.0,63.3,61.0,98,91,63,0.00,40.00,5,1,19,0.00
2014-6-14,87.0,71.5,61.0,68.0,64.0,60.0,98,80,52,0.00,40.00,6,2,13,0.00
2014-6-15,87.0,70.4,60.0,71.0,63.0,-99.9,97,83,51,0.00,40.00,6,2,16,0.00
2014-6-16,92.0,74.5,65.0,74.0,68.1,64.0,97,83,48,0.00,40.00,5,2,10,0.00
2014-6-17,92.0,75.5,64.0,76.0,67.4,63.0,97,79,50,0.00,40.00,5,2,8,0.00
2014-6-18,87.0,72.1,62.0,76.0,66.8,61.0,97,85,57,0.00,40.00,3,2,19,0.00
2014-6-19,89.0,70.1,63.0,76.0,65.8,58.0,97,88,53,0.00,40.00,7,2,28,0.00
2014-6-20,92.0,73.3,61.0,75.0,65.5,60.0,97,80,40,0.00,40.00,4,2,16,0.00
2014-6-21,87.0,71.3,64.0,72.0,65.9,62.0,97,85,49,0.00,40.00,6,2,25,0.00
2014-6-22,89.0,73.4,64.0,70.0,62.8,-99.9,97,75,47,0.00,40.00,5,2,14,0.00
2014-6-23,90.0,71.9,61.0,73.0,64.9,60.0,97,81,48,0.00,40.00,5,2,12,0.00
2014-6-24,85.0,73.0,65.0,74.0,67.3,64.0,96,83,60,0.00,40.00,3,2,10,0.00
2014-6-25,86.0,73.4,67.0,72.0,67.2,64.0,96,82,60,0.00,40.00,6,2,14,0.00
2014-6-26,90.0,73.2,65.0,70.0,66.2,64.0,97,81,48,0.00,40.00,4,2,9,0.00
2014-6-27,83.0,72.0,67.0,71.0,67.7,66.0,96,87,66,0.00,40.00,3,1,10,0.00
2014-6-28,83.0,72.4,64.0,74.0,66.4,62.0,97,83,60,0.00,40.00,6,2,12,0.00
2014-6-29,86.0,69.4,65.0,72.0,63.5,-99.9,97,86,55,0.00,40.00,5,1,22,0.00
2014-6-30,86.0,72.6,63.0,76.0,68.0,62.0,97,87,61,0.00,40.00,3,1,6,0.00
2014-7-1,92.0,76.9,66.0,73.0,68.6,65.0,97,79,54,0.00,40.00,4,2,8,0.00
2014-7-2,93.0,77.2,65.0,73.0,68.0,64.0,97,76,48,0.00,40.00,5,2,10,0.00
2014-7-3,83.0,73.3,66.0,70.0,64.3,54.0,96,76,51,0.00,40.00,8,3,20,0.77
2014-7-4,81.0,67.8,54.0,62.0,56.8,53.0,96,71,46,0.00,40.00,6,3,14,0.65
2014-7-5,87.0,68.4,51.0,71.0,58.3,50.0,96,74,43,0.00,40.00,4,2,9,0.00
2014-7-6,87.0,67.4,54.0,64.0,55.4,-99.9,96,73,42,0.00,40.00,4,2,8,0.00
2014-7-7,88.0,72.1,58.0,71.0,62.9,57.0,96,76,44,0.00,40.00,6,2,14,0.00
2014-7-8,84.0,69.4,60.0,72.0,64.3,59.0,96,85,59,0.00,40.00,6,2,14,0.13
2014-7-9,84.0,72.2,66.0,71.0,67.1,64.0,96,85,54,0.00,40.00,6,2,13,0.42
2014-7-10,85.0,73.0,64.0,70.0,66.1,63.0,96,81,56,0.00,40.00,5,2,11,0.49
2014-7-11,90.0,74.9,64.0,70.0,65.9,63.0,96,77,47,0.00,40.00,5,2,11,0.00
2014-7-12,87.0,72.7,65.0,74.0,67.1,64.0,96,84,60,0.00,40.00,6,2,11,0.00
2014-7-13,90.0,72.7,64.0,72.0,65.6,63.0,96,78,50,0.00,40.00,5,2,12,0.00
2014-7-14,91.0,77.3,65.0,77.0,69.1,64.0,96,78,54,0.00,40.00,5,2,13,0.00
2014-7-15,80.0,71.9,63.0,72.0,65.8,59.0,95,82,61,0.00,40.00,6,2,20,0.08
2014-7-16,81.0,65.7,56.0,61.0,56.8,51.0,96,76,46,0.00,40.00,5,2,16,0.07
2014-7-17,83.0,66.0,52.0,62.0,56.9,51.0,96,76,42,0.00,40.00,4,2,8,0.00
2014-7-18,71.0,64.8,61.0,68.0,63.0,59.0,96,93,89,0.00,40.00,2,1,5,0.57
2014-7-19,71.0,65.7,63.0,68.0,64.2,62.0,96,94,88,0.00,40.00,2,1,5,0.57
2014-7-20,84.0,65.8,64.0,68.0,62.3,62.0,96,90,48,0.00,40.00,5,1,10,0.26
2014-7-21,85.0,73.5,67.0,74.0,68.5,65.0,96,86,56,0.00,40.00,5,1,11,1.00
2014-7-22,86.0,74.2,64.0,73.0,67.7,63.0,96,82,57,0.00,40.00,4,2,8,0.13
2014-7-23,89.0,72.3,67.0,73.0,68.1,66.0,96,88,60,0.00,40.00,6,1,11,0.23
2014-7-24,85.0,72.1,65.0,72.0,67.1,64.0,96,85,62,0.00,40.00,5,2,14,0.71
2014-7-25,86.0,72.3,63.0,68.0,64.5,61.0,96,78,46,0.00,40.00,5,2,12,0.03
2014-7-26,90.0,73.3,60.0,71.0,64.3,59.0,96,77,41,0.00,40.00,5,2,9,0.00
2014-7-27,91.0,74.0,65.0,73.0,66.5,64.0,96,78,53,0.00,40.00,7,2,17,0.00
2014-7-28,80.0,73.8,68.0,70.0,63.8,57.0,96,73,54,0.00,40.00,7,4,19,0.19
2014-7-29,77.0,66.0,56.0,61.0,56.1,49.0,96,73,46,0.00,40.00,7,3,16,0.01
2014-7-30,80.0,62.3,48.0,59.0,54.2,47.0,96,78,48,0.00,40.00,4,2,11,0.00
2014-7-31,75.0,63.2,55.0,65.0,57.5,54.0,96,86,70,0.00,40.00,3,1,4,0.00
2014-8-1,83.0,69.3,60.0,67.0,63.4,59.0,96,83,57,0.00,40.00,4,2,9,0.00
2014-8-2,81.0,70.6,64.0,72.0,66.0,63.0,96,86,63,0.00,40.00,4,2,10,0.05
2014-8-3,86.0,71.6,63.0,68.0,63.4,61.0,96,78,49,0.00,40.00,6,2,11,0.01
2014-8-4,85.0,72.0,61.0,68.0,62.6,60.0,96,75,45,0.00,40.00,5,2,11,0.00
2014-8-5,86.0,71.8,62.0,67.0,62.3,56.0,96,76,42,0.00,40.00,5,2,13,0.00
2014-8-6,88.0,69.0,56.0,67.0,61.0,55.0,96,79,47,0.00,40.00,5,2,13,0.00
2014-8-7,89.0,81.2,68.0,69.0,65.8,63.0,92,62,43,0.00,40.00,5,3,10,0.00
2014-8-8,81.0,70.0,65.0,74.0,67.2,63.0,96,91,71,0.00,40.00,3,1,7,2.19
2014-8-9,89.0,74.9,66.0,74.0,69.0,65.0,96,83,59,0.00,40.00,4,1,6,0.01
2014-8-10,80.0,73.6,67.0,78.0,70.0,66.0,96,89,68,0.00,40.00,4,1,7,0.31
2014-8-11,89.0,75.7,67.0,73.0,68.9,64.0,96,81,57,0.00,40.00,7,3,14,0.72
2014-8-12,87.0,72.0,64.0,71.0,66.1,63.0,96,83,55,0.00,40.00,5,2,13,1.47
2014-8-13,77.0,67.5,59.0,68.0,59.5,57.0,96,77,55,0.00,40.00,6,3,14,0.01
2014-8-14,84.0,66.4,56.0,64.0,58.8,55.0,96,80,45,0.00,40.00,6,2,11,0.00
2014-8-15,85.0,67.8,57.0,64.0,60.5,56.0,96,80,48,0.00,40.00,5,2,13,0.00
2014-8-16,82.0,68.3,56.0,67.0,62.1,55.0,96,82,54,0.00,40.00,3,2,8,0.00
2014-8-17,83.0,69.3,62.0,73.0,64.2,61.0,96,83,55,0.00,40.00,4,1,7,0.00
2014-8-18,86.0,71.8,66.0,72.0,67.6,65.0,96,88,58,0.00,40.00,8,2,17,0.31
2014-8-19,87.0,72.1,65.0,71.0,66.8,64.0,96,85,59,0.00,40.00,4,1,10,0.06
2014-8-20,90.0,71.1,63.0,74.0,66.9,62.0,96,87,58,0.00,40.00,3,1,14,0.10
2014-8-21,89.0,73.2,63.0,74.0,67.1,62.0,96,83,56,0.00,40.00,4,1,12,0.09
2014-8-22,90.0,73.8,66.0,74.0,67.8,65.0,96,84,53,0.00,40.00,4,1,11,0.00
2014-8-23,89.0,73.6,65.0,75.0,68.7,64.0,96,86,61,0.00,40.00,4,1,10,0.00
2014-8-24,89.0,69.9,66.0,73.0,65.9,65.0,96,86,56,0.00,40.00,3,1,11,0.13
2014-8-25,86.0,72.0,66.0,70.0,66.7,65.0,96,84,59,0.00,40.00,7,2,13,0.13
2014-8-26,85.0,70.2,58.0,67.0,63.4,57.0,96,81,54,0.00,40.00,6,2,14,0.00
2014-8-27,86.0,71.6,61.0,68.0,63.3,60.0,96,78,48,0.00,40.00,5,2,10,0.00
2014-8-28,92.0,73.9,60.0,70.0,64.4,59.0,96,76,44,0.00,40.00,4,1,8,0.00
2014-8-29,93.0,74.6,64.0,71.0,65.9,63.0,96,78,41,0.00,40.00,5,2,9,0.00
2014-8-30,87.0,72.3,61.0,75.0,65.8,60.0,96,82,50,0.00,40.00,3,1,11,0.10
2014-8-31,86.0,73.2,68.0,73.0,67.4,66.0,96,81,59,0.00,40.00,4,1,10,0.49
2014-9-1,90.0,76.3,67.0,72.0,68.8,66.0,96,80,52,0.00,40.00,6,1,13,0.01
2014-9-2,91.0,74.6,65.0,74.0,67.8,64.0,96,82,46,0.00,40.00,5,2,9,0.02
2014-9-3,88.0,72.6,66.0,71.0,67.6,64.0,96,86,53,0.00,40.00,4,2,17,1.05
2014-9-4,87.0,73.6,67.0,73.0,68.5,66.0,96,85,57,0.00,40.00,4,1,9,0.03
2014-9-5,87.0,72.5,66.0,72.0,67.7,65.0,96,86,58,0.00,40.00,3,1,12,0.00
2014-9-6,85.0,71.7,66.0,75.0,68.1,65.0,96,89,68,0.00,40.00,3,1,7,0.03
2014-9-7,88.0,71.8,67.0,70.0,67.0,66.0,95,84,51,0.00,40.00,3,1,13,0.01
2014-9-8,87.0,71.2,65.0,70.0,66.4,64.0,96,86,56,0.00,40.00,4,1,9,0.01
2014-9-9,85.0,71.8,65.0,70.0,66.5,63.0,95,84,58,0.00,40.00,4,1,10,0.00
2014-9-10,83.0,72.0,63.0,68.0,65.2,62.0,96,81,57,0.00,40.00,5,2,10,0.00
2014-9-11,83.0,71.8,65.0,76.0,68.0,63.0,95,88,67,0.00,40.00,4,2,12,0.29
2014-9-12,86.0,73.6,68.0,73.0,69.0,67.0,96,86,60,0.00,40.00,5,1,12,0.05
2014-9-13,78.0,70.1,63.0,68.0,65.3,60.0,95,85,66,0.00,40.00,5,2,14,0.00
2014-9-14,80.0,68.1,62.0,71.0,63.5,60.0,95,85,71,0.00,40.00,4,2,12,0.00
2014-9-15,83.0,70.4,64.0,70.0,65.8,63.0,96,86,62,0.00,40.00,3,1,10,0.10
2014-9-16,80.0,70.8,65.0,69.0,66.0,62.0,96,86,62,0.00,40.00,5,1,11,0.10
2014-9-17,78.0,65.9,56.0,62.0,59.9,55.0,95,82,57,0.00,40.00,5,2,12,0.01
2014-9-18,83.0,64.5,55.0,61.0,56.9,54.0,96,79,42,0.00,40.00,4,1,10,0.01
2014-9-19,81.0,64.1,55.0,67.0,59.4,54.0,96,86,49,0.00,40.00,3,1,7,0.00
2014-9-20,83.0,66.6,57.0,64.0,59.5,56.0,96,81,46,0.00,40.00,3,1,8,0.00
2014-9-21,80.0,64.5,55.0,68.0,60.5,54.0,96,86,59,0.00,40.00,5,1,11,0.03
2014-9-22,72.0,62.1,51.0,65.0,53.5,49.0,96,76,47,0.00,40.00,8,3,16,0.04
2014-9-23,79.0,57.9,45.0,59.0,51.9,44.0,96,83,48,0.00,40.00,3,1,7,0.00
2014-9-24,80.0,63.7,54.0,62.0,56.7,53.0,96,80,50,0.00,40.00,5,2,11,0.00
2014-9-25,81.0,65.2,54.0,62.0,58.2,53.0,96,81,52,0.00,40.00,5,2,12,0.00
2014-9-26,81.0,66.1,57.0,68.0,60.4,56.0,96,84,53,0.00,40.00,4,1,7,0.00
2014-9-27,81.0,66.4,57.0,63.0,59.7,56.0,96,81,46,0.00,40.00,4,1,8,0.00
2014-9-28,74.0,62.0,54.0,63.0,57.4,53.0,96,85,63,0.00,40.00,3,1,5,0.00
2014-9-29,76.0,65.4,61.0,65.0,62.1,60.0,96,90,65,0.00,40.00,3,1,6,0.30
2014-9-30,81.0,65.3,58.0,63.0,59.9,57.0,96,85,50,0.00,40.00,5,1,13,0.01
2014-10-1,84.0,63.3,53.0,63.0,56.4,52.0,96,82,42,0.00,40.00,4,1,8,0.00
2014-10-2,76.0,56.5,50.0,65.0,54.3,49.0,96,92,68,0.00,40.00,2,1,6,0.00
2014-10-3,76.0,66.2,60.0,67.0,61.3,57.0,95,84,64,0.00,40.00,7,2,17,0.55
2014-10-4,60.0,50.2,39.0,57.0,38.3,31.0,94,66,40,0.00,40.00,9,5,21,0.07
2014-10-5,69.0,45.7,31.0,45.0,36.0,30.0,96,74,29,0.00,40.00,5,2,11,0.01
2014-10-6,65.0,52.6,43.0,61.0,50.1,42.0,96,91,65,0.00,40.00,3,2,19,0.78
2014-10-7,68.0,59.7,54.0,63.0,57.0,53.0,96,91,77,0.00,40.00,6,2,14,1.32
2014-10-8,80.0,66.8,56.0,65.0,59.6,55.0,96,80,46,0.00,40.00,5,2,13,0.17
2014-10-9,80.0,60.0,49.0,66.0,56.6,48.0,96,90,59,0.00,40.00,3,1,10,0.25
2014-10-10,80.0,65.7,59.0,66.0,62.0,58.0,96,89,55,0.00,40.00,6,1,13,0.04
2014-10-11,78.0,67.1,62.0,67.0,63.8,61.0,96,89,62,0.00,40.00,3,1,6,0.04
2014-10-12,74.0,65.0,61.0,68.0,62.2,60.0,96,89,74,0.00,40.00,2,1,7,0.35
2014-10-13,80.0,68.6,63.0,67.0,61.2,58.0,96,78,55,0.00,40.00,5,3,15,0.10
2014-10-14,71.0,64.3,55.0,64.0,59.8,51.0,95,86,64,0.00,40.00,7,3,31,3.70
2014-10-15,62.0,54.5,52.0,52.0,49.9,48.0,94,85,62,0.00,40.00,5,2,12,0.04
2014-10-16,58.0,52.8,48.0,50.0,49.1,46.0,96,88,72,0.00,40.00,5,2,12,0.06
2014-10-17,78.0,55.6,44.0,53.0,48.3,43.0,96,80,42,0.00,40.00,6,2,14,0.06
2014-10-18,67.0,59.8,51.0,57.0,48.4,42.0,91,67,45,0.00,40.00,9,5,21,0.02
2014-10-19,72.0,52.9,43.0,49.0,42.3,39.0,95,69,36,0.00,40.00,8,3,21,0.00
2014-10-20,71.0,51.5,40.0,51.0,45.5,39.0,96,83,43,0.00,40.00,6,2,12,0.00
2014-10-21,67.0,53.6,46.0,53.0,44.5,40.0,96,75,46,0.00,40.00,8,3,18,0.00
2014-10-22,61.0,48.7,36.0,44.0,38.4,35.0,95,70,45,0.00,40.00,8,4,19,0.00
2014-10-23,70.0,44.8,34.0,45.0,38.3,33.0,96,82,38,0.00,40.00,4,2,18,0.00
2014-10-24,71.0,50.0,38.0,46.0,40.2,37.0,96,75,31,0.00,40.00,6,2,13,0.00
2014-10-25,74.0,50.0,35.0,51.0,42.0,34.0,96,79,29,0.00,40.00,6,2,15,0.00
2014-10-26,77.0,56.8,46.0,56.0,46.2,43.0,96,76,30,0.00,40.00,8,2,16,0.00
2014-10-27,87.0,58.0,41.0,56.0,47.9,40.0,96,76,27,0.00,40.00,6,2,10,0.00
2014-10-28,80.0,60.7,50.0,60.0,51.1,45.0,96,74,37,0.00,40.00,6,3,17,0.00
2014-10-29,60.0,54.3,40.0,57.0,49.5,37.0,95,85,58,0.00,40.00,4,1,15,0.13
2014-10-30,65.0,44.4,34.0,48.0,36.4,33.0,96,79,32,0.00,40.00,5,1,13,0.03
2014-10-31,54.0,40.7,32.0,41.0,35.9,31.0,96,84,54,0.00,40.00,9,2,29,0.26
2014-11-1,33.0,32.2,31.0,31.0,29.8,29.0,93,91,88,0.00,40.00,11,8,29,0.31
2014-11-2,49.0,35.5,28.0,29.0,25.5,23.0,94,69,38,0.00,40.00,8,4,18,0.22
2014-11-3,71.0,40.2,25.0,37.0,28.8,23.0,94,72,18,0.00,40.00,3,1,7,0.05
2014-11-4,73.0,46.3,33.0,38.0,31.9,19.0,95,67,13,0.00,40.00,5,2,14,0.00
2014-11-5,64.0,52.5,42.0,50.0,43.2,35.0,79,71,60,0.00,40.00,5,3,10,0.00
2014-11-6,70.0,55.6,44.0,59.0,44.8,29.0,96,70,33,0.00,40.00,11,4,25,0.26
2014-11-7,57.0,43.9,33.0,36.0,33.3,30.0,94,68,45,0.00,40.00,10,5,24,0.01
2014-11-8,63.0,43.3,29.0,41.0,31.8,28.0,96,69,28,0.00,40.00,7,2,13,0.01
2014-11-9,67.0,45.6,32.0,42.0,36.9,31.0,96,76,32,0.00,40.00,6,2,12,0.00
2014-11-10,73.0,46.9,31.0,45.0,34.8,30.0,96,71,22,0.00,40.00,6,2,11,0.00
2014-11-11,75.0,47.0,31.0,42.0,35.4,29.0,96,72,18,0.00,40.00,5,2,10,0.00
2014-11-12,61.0,49.1,40.0,49.0,42.7,38.0,92,78,61,0.00,40.00,7,4,12,0.00
2014-11-13,40.0,34.5,27.0,38.0,31.9,23.0,94,90,82,0.00,40.00,10,4,20,0.00